createdAt,value
2022-11-07T00:00:36.664Z,98438.97
2022-11-07T00:03:40.597Z,98450.72
2022-11-07T00:06:43.417Z,98455.06
2022-11-07T00:09:45.956Z,98446.56
2022-11-07T00:12:48.502Z,98450.91
2022-11-07T00:15:51.148Z,98459.94
2022-11-07T00:18:55.226Z,98468.44
2022-11-07T00:21:57.834Z,98469.19
2022-11-07T00:25:00.388Z,98471.91
2022-11-07T00:28:03.006Z,98482.63
2022-11-07T00:31:06.632Z,98475.06
2022-11-07T00:34:10.461Z,98474.88
2022-11-07T00:37:13.200Z,98485.34
2022-11-07T00:40:15.907Z,98484.06
2022-11-07T00:43:18.596Z,98492.41
2022-11-07T00:46:21.709Z,98488.31
2022-11-07T00:49:25.797Z,98497.91
2022-11-07T00:52:28.461Z,98497.25
2022-11-07T00:55:32.910Z,98500.31
2022-11-07T00:58:36.163Z,98515.59
2022-11-07T01:01:38.889Z,98499.28
2022-11-07T01:04:56.884Z,98505.91
2022-11-07T01:07:59.483Z,98510.34
2022-11-07T01:11:06.171Z,98505.09
2022-11-07T01:14:09.588Z,98500.16
2022-11-07T01:17:12.124Z,98504.19
2022-11-07T01:20:16.064Z,98498.31
2022-11-07T01:23:18.941Z,98504.22
2022-11-07T01:26:21.551Z,98495.91
2022-11-07T01:29:24.179Z,98503.09
2022-11-07T01:32:26.757Z,98496.50
2022-11-07T01:35:30.743Z,98503.56
2022-11-07T01:38:33.328Z,98508.41
2022-11-07T01:41:37.833Z,98504.88
2022-11-07T01:44:57.020Z,98506.16
2022-11-07T01:48:02.749Z,98507.16
2022-11-07T01:51:07.683Z,98500.56
2022-11-07T01:54:11.044Z,98499.13
2022-11-07T01:57:17.681Z,98503.94
2022-11-07T02:00:22.213Z,98502.47
2022-11-07T02:03:25.162Z,98502.09
2022-11-07T02:06:34.600Z,98501.06
2022-11-07T02:09:37.418Z,98507.97
2022-11-07T02:12:40.130Z,98507.34
2022-11-07T02:15:42.655Z,98509.78
2022-11-07T02:18:46.440Z,98505.91
2022-11-07T02:21:55.239Z,98502.59
2022-11-07T02:25:02.415Z,98509.22
2022-11-07T02:28:07.455Z,98516.25
2022-11-07T02:31:10.087Z,98512.56
2022-11-07T02:34:12.708Z,98501.25
2022-11-07T02:37:22.031Z,98512.59
2022-11-07T02:40:26.596Z,98515.78
2022-11-07T02:43:30.413Z,98514.63
2022-11-07T02:46:33.558Z,98505.28
2022-11-07T02:49:36.095Z,98501.75
2022-11-07T02:52:38.674Z,98496.22
2022-11-07T02:55:42.719Z,98500.84
2022-11-07T02:58:45.539Z,98500.34
2022-11-07T03:01:48.393Z,98492.63
2022-11-07T03:04:51.418Z,98500.78
2022-11-07T03:07:54.012Z,98492.09
2022-11-07T03:10:58.120Z,98494.16
2022-11-07T03:14:00.707Z,98500.22
2022-11-07T03:17:03.433Z,98490.56
2022-11-07T03:20:07.311Z,98504.53
2022-11-07T03:23:09.862Z,98495.25
2022-11-07T03:26:13.777Z,98495.63
2022-11-07T03:29:16.849Z,98494.38
2022-11-07T03:32:19.496Z,98497.69
2022-11-07T03:35:22.479Z,98505.56
2022-11-07T03:38:25.036Z,98504.66
2022-11-07T03:41:29.148Z,98507.41
2022-11-07T03:44:31.787Z,98513.00
2022-11-07T03:47:34.875Z,98512.44
2022-11-07T03:50:37.583Z,98506.06
2022-11-07T03:53:40.251Z,98509.50
2022-11-07T03:56:44.214Z,98506.53
2022-11-07T03:59:46.860Z,98514.06
2022-11-07T04:02:49.596Z,98516.13
2022-11-07T04:05:52.439Z,98528.03
2022-11-07T04:08:54.996Z,98529.50
2022-11-07T04:12:16.539Z,98535.75
2022-11-07T04:15:36.794Z,98532.72
2022-11-07T04:18:39.443Z,98532.53
2022-11-07T04:21:42.062Z,98544.56
2022-11-07T04:24:46.258Z,98540.22
2022-11-07T04:27:49.478Z,98546.41
2022-11-07T04:30:52.047Z,98549.69
2022-11-07T04:33:54.678Z,98552.59
2022-11-07T04:36:57.311Z,98549.88
2022-11-07T04:39:59.921Z,98544.66
2022-11-07T04:43:08.988Z,98548.81
2022-11-07T04:46:11.627Z,98553.38
2022-11-07T04:49:15.243Z,98552.50
2022-11-07T04:52:17.851Z,98561.69
2022-11-07T04:55:22.005Z,98560.94
2022-11-07T04:58:25.961Z,98562.19
2022-11-07T05:01:28.541Z,98560.25
2022-11-07T05:04:31.116Z,98562.22
2022-11-07T05:07:33.703Z,98563.53
2022-11-07T05:10:36.319Z,98570.19
2022-11-07T05:13:40.285Z,98562.34
2022-11-07T05:16:43.519Z,98564.31
2022-11-07T05:19:47.771Z,98565.16
2022-11-07T05:23:07.787Z,98568.19
2022-11-07T05:26:10.692Z,98572.66
2022-11-07T05:29:14.649Z,98571.22
2022-11-07T05:32:17.602Z,98573.50
2022-11-07T05:35:20.132Z,98569.97
2022-11-07T05:38:22.767Z,98571.25
2022-11-07T05:41:25.429Z,98576.41
2022-11-07T05:44:29.410Z,98579.59
2022-11-07T05:47:32.167Z,98582.00
2022-11-07T05:50:34.816Z,98584.06
2022-11-07T05:53:37.449Z,98574.22
2022-11-07T05:56:40.884Z,98573.41
2022-11-07T05:59:44.792Z,98581.44
2022-11-07T06:02:55.294Z,98585.28
2022-11-07T06:05:58.139Z,98586.72
2022-11-07T06:09:00.772Z,98582.53
2022-11-07T06:12:03.843Z,98582.50
2022-11-07T06:15:09.159Z,98578.44
2022-11-07T06:18:14.937Z,98566.88
2022-11-07T06:21:18.229Z,98567.75
2022-11-07T06:24:21.535Z,98578.53
2022-11-07T06:27:24.513Z,98583.69
2022-11-07T06:30:29.413Z,98574.66
2022-11-07T06:33:32.504Z,98586.06
2022-11-07T06:36:35.110Z,98573.94
2022-11-07T06:39:37.727Z,98574.47
2022-11-07T06:42:40.312Z,98589.84
2022-11-07T06:45:45.550Z,98586.72
2022-11-07T06:48:48.061Z,98580.41
2022-11-07T06:51:50.769Z,98587.78
2022-11-07T06:54:53.374Z,98595.50
2022-11-07T06:57:59.424Z,98600.41
2022-11-07T07:01:04.796Z,98594.72
2022-11-07T07:04:07.630Z,98602.28
2022-11-07T07:07:10.349Z,98611.91
2022-11-07T07:10:13.258Z,98613.66
2022-11-07T07:13:16.469Z,98629.94
2022-11-07T07:16:20.682Z,98620.56
2022-11-07T07:19:23.393Z,98622.56
2022-11-07T07:22:26.523Z,98631.50
2022-11-07T07:25:29.279Z,98630.28
2022-11-07T07:28:32.136Z,98630.44
2022-11-07T07:31:36.500Z,98637.34
2022-11-07T07:34:39.250Z,98640.69
2022-11-07T07:37:42.063Z,98631.78
2022-11-07T07:40:44.836Z,98639.63
2022-11-07T07:43:47.746Z,98632.47
2022-11-07T07:46:51.792Z,98641.56
2022-11-07T07:49:54.593Z,98634.50
2022-11-07T07:52:57.934Z,98644.16
2022-11-07T07:56:02.745Z,98638.28
2022-11-07T07:59:05.437Z,98642.84
2022-11-07T08:02:12.108Z,98641.16
2022-11-07T08:05:16.128Z,98635.59
2022-11-07T08:08:18.828Z,98634.44
2022-11-07T08:11:21.670Z,98635.84
2022-11-07T08:14:24.300Z,98630.34
2022-11-07T08:17:28.314Z,98642.91
2022-11-07T08:20:30.915Z,98638.69
2022-11-07T08:23:33.509Z,98648.72
2022-11-07T08:26:37.428Z,98651.03
2022-11-07T08:29:40.009Z,98656.38
2022-11-07T08:32:43.943Z,98651.00
2022-11-07T08:35:46.537Z,98650.25
2022-11-07T08:38:49.402Z,98648.63
2022-11-07T08:41:52.492Z,98652.28
2022-11-07T08:44:55.442Z,98651.13
2022-11-07T08:47:59.760Z,98650.72
2022-11-07T08:51:03.157Z,98654.06
2022-11-07T08:54:06.083Z,98652.22
2022-11-07T08:57:08.752Z,98655.03
2022-11-07T09:00:12.841Z,98646.22
2022-11-07T09:03:43.685Z,98649.44
2022-11-07T09:06:39.917Z,98645.69
2022-11-07T09:09:42.606Z,98658.56
2022-11-07T09:12:46.014Z,98658.31
2022-11-07T09:15:51.429Z,98656.00
2022-11-07T09:18:56.090Z,98655.13
2022-11-07T09:21:59.354Z,98660.88
2022-11-07T09:25:02.344Z,98664.34
2022-11-07T09:28:08.263Z,98666.13
2022-11-07T09:31:11.709Z,98668.00
2022-11-07T09:34:15.590Z,98663.38
2022-11-07T09:37:18.480Z,98667.22
2022-11-07T09:40:33.375Z,98682.84
2022-11-07T09:43:57.664Z,98681.31
2022-11-07T09:47:03.115Z,98678.53
2022-11-07T09:50:13.483Z,98681.13
2022-11-07T09:53:19.842Z,98682.63
2022-11-07T09:56:22.718Z,98677.06
2022-11-07T09:59:28.772Z,98678.94
2022-11-07T10:02:33.328Z,98672.28
2022-11-07T10:05:44.827Z,98683.31
2022-11-07T10:08:51.941Z,98673.19
2022-11-07T10:11:59.832Z,98673.53
2022-11-07T10:15:05.735Z,98673.41
2022-11-07T10:18:16.335Z,98675.06
2022-11-07T10:21:37.498Z,98678.41
2022-11-07T10:24:48.865Z,98682.84
2022-11-07T10:27:55.164Z,98681.69
2022-11-07T10:31:00.284Z,98675.66
2022-11-07T10:34:05.336Z,98669.47
2022-11-07T10:37:10.095Z,98673.81
2022-11-07T10:40:15.972Z,98668.41
2022-11-07T10:43:32.890Z,98668.19
2022-11-07T10:46:39.387Z,98658.53
2022-11-07T10:49:42.011Z,98650.44
2022-11-07T10:52:53.480Z,98648.34
2022-11-07T10:55:56.561Z,98642.03
2022-11-07T10:58:59.339Z,98637.97
2022-11-07T11:02:02.666Z,98638.47
2022-11-07T11:05:05.793Z,98632.88
2022-11-07T11:08:16.181Z,98635.31
2022-11-07T11:11:28.382Z,98631.66
2022-11-07T11:14:31.149Z,98633.31
2022-11-07T11:17:34.335Z,98638.56
2022-11-07T11:20:38.985Z,98640.69
2022-11-07T11:23:45.880Z,98638.59
2022-11-07T11:26:50.224Z,98648.22
2022-11-07T11:29:57.484Z,98645.94
2022-11-07T11:33:05.426Z,98654.72
2022-11-07T11:36:12.130Z,98646.28
2022-11-07T11:39:26.468Z,98648.25
2022-11-07T11:42:33.706Z,98640.22
2022-11-07T11:45:42.344Z,98634.50
2022-11-07T11:48:46.359Z,98629.53
2022-11-07T11:51:51.650Z,98630.81
2022-11-07T11:54:57.704Z,98639.28
2022-11-07T11:58:09.120Z,98637.47
2022-11-07T12:01:19.727Z,98637.06
2022-11-07T12:04:49.855Z,98647.03
2022-11-07T12:07:59.362Z,98643.06
2022-11-07T12:11:07.691Z,98627.19
2022-11-07T12:14:28.141Z,98631.00
2022-11-07T12:17:39.042Z,98625.00
2022-11-07T12:20:47.289Z,98619.41
2022-11-07T12:24:03.560Z,98612.38
2022-11-07T12:27:14.457Z,98616.53
2022-11-07T12:30:21.927Z,98613.16
2022-11-07T12:33:31.271Z,98609.06
2022-11-07T12:36:45.421Z,98605.97
2022-11-07T12:39:55.671Z,98610.88
2022-11-07T12:43:11.702Z,98603.22
2022-11-07T12:46:18.253Z,98603.13
2022-11-07T12:49:44.182Z,98611.41
2022-11-07T12:52:56.821Z,98613.72
2022-11-07T12:56:03.182Z,98607.78
2022-11-07T12:59:12.193Z,98598.53
2022-11-07T13:02:27.002Z,98604.84
2022-11-07T13:05:39.441Z,98597.69
2022-11-07T13:08:52.037Z,98600.84
2022-11-07T13:11:58.395Z,98601.94
2022-11-07T13:15:04.480Z,98596.34
2022-11-07T13:18:15.755Z,98593.84
2022-11-07T13:21:21.251Z,98594.63
2022-11-07T13:24:23.926Z,98604.00
2022-11-07T13:27:33.830Z,98600.34
2022-11-07T13:30:39.983Z,98591.06
2022-11-07T13:33:42.627Z,98596.09
2022-11-07T13:36:46.335Z,98597.00
2022-11-07T13:39:52.230Z,98594.28
2022-11-07T13:42:56.488Z,98593.63
2022-11-07T13:46:02.770Z,98592.59
2022-11-07T13:49:08.039Z,98591.06
2022-11-07T13:52:18.187Z,98591.34
2022-11-07T13:55:23.734Z,98588.44
2022-11-07T13:58:27.885Z,98593.38
2022-11-07T14:01:43.532Z,98595.13
2022-11-07T14:05:14.853Z,98579.03
2022-11-07T14:08:20.385Z,98583.03
2022-11-07T14:11:24.673Z,98586.09
2022-11-07T14:14:28.690Z,98593.19
2022-11-07T14:17:34.904Z,98600.38
2022-11-07T14:20:37.866Z,98601.38
2022-11-07T14:23:45.558Z,98594.22
2022-11-07T14:26:59.035Z,98589.69
2022-11-07T14:30:01.787Z,98586.66
2022-11-07T14:33:06.948Z,98586.72
2022-11-07T14:36:13.624Z,98591.56
2022-11-07T14:39:16.967Z,98602.69
2022-11-07T14:42:20.240Z,98602.91
2022-11-07T14:45:47.117Z,98599.13
2022-11-07T14:48:49.959Z,98607.03
2022-11-07T14:51:53.378Z,98598.03
2022-11-07T14:54:58.273Z,98587.88
2022-11-07T14:58:01.954Z,98593.97
2022-11-07T15:01:13.494Z,98604.06
2022-11-07T15:04:27.942Z,98590.41
2022-11-07T15:07:32.709Z,98593.38
2022-11-07T15:10:39.495Z,98592.50
2022-11-07T15:13:43.286Z,98601.84
2022-11-07T15:16:48.373Z,98593.84
2022-11-07T15:19:59.813Z,98594.75
2022-11-07T15:23:04.324Z,98594.00
2022-11-07T15:26:22.532Z,98595.69
2022-11-07T15:29:25.166Z,98599.06
2022-11-07T15:32:31.648Z,98596.22
2022-11-07T15:35:44.018Z,98605.91
2022-11-07T15:38:48.133Z,98601.09
2022-11-07T15:41:50.816Z,98592.34
2022-11-07T15:44:53.622Z,98598.44
2022-11-07T15:47:56.440Z,98601.72
2022-11-07T15:51:00.502Z,98608.66
2022-11-07T15:54:03.420Z,98613.63
2022-11-07T15:57:07.323Z,98608.72
2022-11-07T16:00:15.545Z,98607.28
2022-11-07T16:03:19.782Z,98600.56
2022-11-07T16:06:27.553Z,98608.88
2022-11-07T16:09:33.661Z,98599.78
2022-11-07T16:12:36.344Z,98596.63
2022-11-07T16:15:39.677Z,98584.41
2022-11-07T16:18:44.556Z,98589.38
2022-11-07T16:21:49.065Z,98587.69
2022-11-07T16:24:51.735Z,98591.47
2022-11-07T16:27:56.154Z,98587.09
2022-11-07T16:30:59.060Z,98598.03
2022-11-07T16:34:03.361Z,98588.97
2022-11-07T16:37:07.458Z,98599.13
2022-11-07T16:40:14.189Z,98600.53
2022-11-07T16:43:17.607Z,98594.59
2022-11-07T16:46:21.624Z,98607.16
2022-11-07T16:49:29.329Z,98598.34
2022-11-07T16:52:33.644Z,98606.91
2022-11-07T16:55:37.068Z,98602.09
2022-11-07T16:58:39.942Z,98608.13
2022-11-07T17:01:42.652Z,98610.06
2022-11-07T17:04:45.401Z,98603.19
2022-11-07T17:07:50.571Z,98607.09
2022-11-07T17:10:53.419Z,98607.38
2022-11-07T17:13:56.111Z,98609.06
2022-11-07T17:17:04.464Z,98603.09
2022-11-07T17:20:08.547Z,98605.91
2022-11-07T17:23:12.646Z,98609.22
2022-11-07T17:26:16.216Z,98603.38
2022-11-07T17:29:18.768Z,98603.75
2022-11-07T17:32:21.565Z,98607.19
2022-11-07T17:35:32.009Z,98595.34
2022-11-07T17:38:36.344Z,98605.09
2022-11-07T17:41:39.587Z,98610.03
2022-11-07T17:44:43.214Z,98611.97
2022-11-07T17:47:45.635Z,98614.47
2022-11-07T17:50:48.291Z,98615.81
2022-11-07T17:53:52.521Z,98622.28
2022-11-07T17:56:55.105Z,98618.66
2022-11-07T17:59:57.877Z,98611.00
2022-11-07T18:03:00.629Z,98615.28
2022-11-07T18:06:03.263Z,98612.69
2022-11-07T18:09:08.931Z,98619.66
2022-11-07T18:12:12.149Z,98614.38
2022-11-07T18:15:14.720Z,98610.97
2022-11-07T18:18:17.486Z,98615.28
2022-11-07T18:21:20.630Z,98607.50
2022-11-07T18:24:24.905Z,98608.13
2022-11-07T18:27:27.677Z,98614.38
2022-11-07T18:30:30.980Z,98615.69
2022-11-07T18:33:33.961Z,98609.00
2022-11-07T18:36:38.225Z,98610.66
2022-11-07T18:39:42.200Z,98610.56
2022-11-07T18:42:45.534Z,98616.72
2022-11-07T18:45:48.526Z,98608.41
2022-11-07T18:48:51.733Z,98609.91
2022-11-07T18:51:54.497Z,98612.59
2022-11-07T18:54:58.898Z,98611.16
2022-11-07T18:58:01.629Z,98611.31
2022-11-07T19:01:06.588Z,98616.19
2022-11-07T19:04:11.392Z,98609.75
2022-11-07T19:07:13.976Z,98608.81
2022-11-07T19:10:18.208Z,98613.19
2022-11-07T19:13:20.754Z,98606.59
2022-11-07T19:16:23.670Z,98605.94
2022-11-07T19:19:26.571Z,98613.00
2022-11-07T19:22:29.331Z,98604.84
2022-11-07T19:25:33.335Z,98606.13
2022-11-07T19:28:37.184Z,98612.22
2022-11-07T19:31:39.944Z,98610.13
2022-11-07T19:34:42.546Z,98605.94
2022-11-07T19:37:45.110Z,98616.56
2022-11-07T19:40:50.529Z,98609.81
2022-11-07T19:43:53.119Z,98619.63
2022-11-07T19:46:55.819Z,98624.91
2022-11-07T19:49:58.634Z,98617.34
2022-11-07T19:53:01.288Z,98617.16
2022-11-07T19:56:09.930Z,98608.97
2022-11-07T19:59:12.489Z,98603.16
2022-11-07T20:02:32.422Z,98608.38
2022-11-07T20:05:39.488Z,98599.69
2022-11-07T20:08:43.270Z,98596.78
2022-11-07T20:11:49.001Z,98607.06
2022-11-07T20:14:51.603Z,98605.44
2022-11-07T20:17:54.203Z,98616.63
2022-11-07T20:21:04.103Z,98621.94
2022-11-07T20:24:09.125Z,98620.31
2022-11-07T20:27:13.554Z,98628.97
2022-11-07T20:30:16.165Z,98627.31
2022-11-07T20:33:19.022Z,98624.16
2022-11-07T20:36:22.174Z,98621.13
2022-11-07T20:39:24.869Z,98626.72
2022-11-07T20:42:28.796Z,98625.81
2022-11-07T20:45:31.655Z,98634.78
2022-11-07T20:48:34.721Z,98630.59
2022-11-07T20:51:37.546Z,98628.00
2022-11-07T20:54:40.206Z,98636.69
2022-11-07T20:57:44.497Z,98624.09
2022-11-07T21:00:47.222Z,98628.00
2022-11-07T21:03:50.077Z,98637.53
2022-11-07T21:06:52.672Z,98631.81
2022-11-07T21:09:55.286Z,98632.72
2022-11-07T21:12:59.193Z,98640.47
2022-11-07T21:16:01.929Z,98642.88
2022-11-07T21:19:05.073Z,98632.66
2022-11-07T21:22:07.656Z,98634.38
2022-11-07T21:25:10.607Z,98644.00
2022-11-07T21:28:17.304Z,98625.47
2022-11-07T21:31:23.856Z,98638.97
2022-11-07T21:34:26.440Z,98635.41
2022-11-07T21:37:29.159Z,98640.16
2022-11-07T21:40:31.735Z,98632.69
2022-11-07T21:43:35.616Z,98640.69
2022-11-07T21:46:38.240Z,98634.06
2022-11-07T21:49:40.872Z,98620.88
2022-11-07T21:52:43.474Z,98629.66
2022-11-07T21:55:46.064Z,98628.13
2022-11-07T21:58:50.973Z,98620.94
2022-11-07T22:01:55.220Z,98615.63
2022-11-07T22:04:57.978Z,98616.25
2022-11-07T22:08:00.779Z,98603.66
2022-11-07T22:11:03.532Z,98609.63
2022-11-07T22:14:07.443Z,98599.66
2022-11-07T22:17:10.193Z,98603.81
2022-11-07T22:20:13.642Z,98590.72
2022-11-07T22:23:16.528Z,98598.28
2022-11-07T22:26:21.070Z,98584.94
2022-11-07T22:29:25.002Z,98585.66
2022-11-07T22:32:27.640Z,98573.59
2022-11-07T22:35:30.387Z,98573.41
2022-11-07T22:38:33.845Z,98573.00
2022-11-07T22:41:36.634Z,98568.19
2022-11-07T22:44:40.540Z,98559.94
2022-11-07T22:47:43.092Z,98565.75
2022-11-07T22:50:46.048Z,98570.38
2022-11-07T22:53:48.703Z,98571.72
2022-11-07T22:56:51.244Z,98564.34
2022-11-07T22:59:55.209Z,98555.88
2022-11-07T23:02:57.977Z,98558.31
2022-11-07T23:06:03.803Z,98561.44
2022-11-07T23:09:06.367Z,98563.34
2022-11-07T23:12:09.049Z,98566.78
2022-11-07T23:15:13.279Z,98568.00
2022-11-07T23:18:16.373Z,98569.72
2022-11-07T23:21:19.539Z,98566.28
2022-11-07T23:24:22.165Z,98558.13
2022-11-07T23:27:24.955Z,98553.81
2022-11-07T23:30:30.223Z,98562.34
2022-11-07T23:33:34.250Z,98559.47
2022-11-07T23:36:37.035Z,98558.53
2022-11-07T23:39:39.601Z,98560.13
2022-11-07T23:42:42.600Z,98557.03
2022-11-07T23:46:04.087Z,98556.53
2022-11-07T23:49:24.577Z,98564.28
2022-11-07T23:52:27.303Z,98558.31
2022-11-07T23:55:41.263Z,98553.81
2022-11-07T23:59:01.217Z,98554.50
